Time;durP1;ratioP1;P1;durP2;ratioP2;P2;SDS_P1;SDS_P2;PMS_P1;PMS_P2;Temp;Humidity;BMP_temperature;BMP_pressure;BME280_temperature;BME280_humidity;BME280_pressure;Samples;Min_cycle;Max_cycle;Signal;HPM_P1;HPM_P2
2023/10/01 00:00:26;;;;;;;13.30;7.05;;;;;;;15.21;100.00;97563.38;5045561;28;20206;-52
2023/10/01 00:02:54;;;;;;;12.85;7.20;;;;;;;15.21;100.00;97576.72;5044361;28;20216;-51
2023/10/01 00:05:22;;;;;;;12.52;6.53;;;;;;;15.21;100.00;97577.56;5044467;28;20196;-52
2023/10/01 00:07:51;;;;;;;13.48;7.10;;;;;;;15.20;100.00;97569.69;5043229;28;20229;-51
2023/10/01 00:10:19;;;;;;;11.38;6.85;;;;;;;15.22;100.00;97567.75;5043712;28;20211;-50
2023/10/01 00:12:46;;;;;;;10.75;6.70;;;;;;;15.23;100.00;97572.91;5043730;28;20489;-50
2023/10/01 00:15:16;;;;;;;11.77;7.25;;;;;;;15.23;100.00;97556.91;5043727;28;20207;-52
2023/10/01 00:17:44;;;;;;;12.82;6.80;;;;;;;15.21;100.00;97560.72;5043503;28;20302;-52
2023/10/01 00:20:17;;;;;;;11.20;7.13;;;;;;;15.17;100.00;97559.34;5043933;28;20232;-52
2023/10/01 00:22:43;;;;;;;9.05;6.35;;;;;;;15.18;100.00;97561.03;5043865;28;20191;-52
2023/10/01 00:25:11;;;;;;;8.73;6.05;;;;;;;15.17;100.00;97559.34;5043587;28;20203;-51
2023/10/01 00:27:38;;;;;;;11.57;7.07;;;;;;;15.10;100.00;97558.25;5043143;28;20265;-51
2023/10/01 00:30:08;;;;;;;11.38;7.22;;;;;;;15.06;100.00;97567.53;5043760;28;20203;-51
2023/10/01 00:32:34;;;;;;;11.85;7.22;;;;;;;15.04;100.00;97570.34;5043829;28;20291;-51
2023/10/01 00:35:04;;;;;;;12.55;6.45;;;;;;;14.97;100.00;97563.09;5042924;28;20211;-51
2023/10/01 00:37:32;;;;;;;10.77;7.03;;;;;;;14.94;100.00;97569.56;5043657;28;20212;-51
2023/10/01 00:39:59;;;;;;;11.57;6.60;;;;;;;14.87;100.00;97565.81;5043276;28;20214;-52
2023/10/01 00:42:28;;;;;;;10.00;6.90;;;;;;;14.77;100.00;97565.84;5043463;28;20197;-52
2023/10/01 00:44:55;;;;;;;13.18;7.22;;;;;;;14.71;100.00;97569.09;5042717;28;20211;-50
2023/10/01 00:47:22;;;;;;;10.43;6.80;;;;;;;14.69;100.00;97562.25;5042612;28;20530;-50
2023/10/01 00:49:49;;;;;;;9.45;6.40;;;;;;;14.67;100.00;97559.72;5042334;28;20285;-51
2023/10/01 00:52:18;;;;;;;10.80;7.20;;;;;;;14.68;100.00;97558.75;5042473;28;20211;-50
2023/10/01 00:54:45;;;;;;;9.13;6.85;;;;;;;14.59;100.00;97554.31;5042512;28;20272;-51
2023/10/01 00:57:12;;;;;;;13.02;7.28;;;;;;;14.53;100.00;97549.53;5041804;28;20761;-51
2023/10/01 00:59:39;;;;;;;11.38;6.95;;;;;;;14.46;100.00;97540.47;5042230;28;20283;-51
2023/10/01 01:02:07;;;;;;;9.43;6.63;;;;;;;14.44;100.00;97551.28;5042913;28;20207;-52
2023/10/01 01:04:36;;;;;;;15.13;7.75;;;;;;;14.40;100.00;97551.69;5041957;28;20652;-51
2023/10/01 01:07:14;;;;;;;11.35;6.88;;;;;;;14.36;100.00;97552.97;5042502;28;20222;-52
2023/10/01 01:09:41;;;;;;;13.18;6.78;;;;;;;14.35;100.00;97561.91;5041964;28;20195;-51
2023/10/01 01:12:08;;;;;;;10.77;7.55;;;;;;;14.33;100.00;97558.53;5042203;28;20223;-50
2023/10/01 01:14:35;;;;;;;12.63;7.33;;;;;;;14.32;100.00;97554.19;5041337;28;20230;-52
2023/10/01 01:17:03;;;;;;;10.48;7.38;;;;;;;14.28;100.00;97550.13;5042219;28;20203;-53
2023/10/01 01:19:30;;;;;;;11.13;7.05;;;;;;;14.24;100.00;97549.59;5042918;28;20312;-52
2023/10/01 01:21:56;;;;;;;13.43;7.40;;;;;;;14.23;100.00;97549.75;5041349;28;20215;-51
2023/10/01 01:24:24;;;;;;;16.05;7.45;;;;;;;14.18;100.00;97555.50;5041897;28;20294;-52
2023/10/01 01:26:51;;;;;;;12.75;8.10;;;;;;;14.17;100.00;97558.31;5041697;28;20227;-51
2023/10/01 01:29:29;;;;;;;11.45;7.53;;;;;;;14.14;100.00;97554.09;5041870;28;20234;-52
2023/10/01 01:32:06;;;;;;;14.35;7.70;;;;;;;14.09;100.00;97550.19;5041814;28;20281;-51
2023/10/01 01:34:34;;;;;;;11.52;6.82;;;;;;;14.07;100.00;97557.47;5042098;28;20546;-50
2023/10/01 01:37:02;;;;;;;12.75;7.45;;;;;;;14.03;100.00;97553.44;5041724;28;20195;-50
2023/10/01 01:39:42;;;;;;;12.35;7.00;;;;;;;14.02;100.00;97547.28;5042298;28;20200;-51
2023/10/01 01:42:08;;;;;;;11.18;7.65;;;;;;;13.99;100.00;97539.59;5041548;28;20281;-51
2023/10/01 01:44:37;;;;;;;13.60;7.05;;;;;;;14.02;100.00;97543.78;5041702;28;20211;-50
2023/10/01 01:47:07;;;;;;;12.80;7.03;;;;;;;13.96;100.00;97535.38;5041479;28;20334;-51
2023/10/01 01:49:34;;;;;;;12.10;7.30;;;;;;;13.91;100.00;97527.00;5041234;28;20294;-52
2023/10/01 01:52:03;;;;;;;14.68;7.93;;;;;;;13.85;100.00;97530.19;5041810;28;20207;-50
2023/10/01 01:54:34;;;;;;;13.47;7.00;;;;;;;13.85;100.00;97527.53;5041699;28;20517;-50
2023/10/01 01:57:02;;;;;;;11.23;7.30;;;;;;;13.83;100.00;97529.50;5041571;28;20241;-51
2023/10/01 01:59:31;;;;;;;14.23;7.87;;;;;;;13.83;100.00;97534.84;5041941;28;20254;-58
2023/10/01 02:01:57;;;;;;;11.50;7.18;;;;;;;13.82;100.00;97537.63;5042415;28;20195;-51
2023/10/01 02:04:24;;;;;;;12.88;7.47;;;;;;;13.84;100.00;97543.66;5041038;28;20199;-51
2023/10/01 02:06:51;;;;;;;11.63;7.30;;;;;;;13.85;100.00;97540.03;5041639;28;20319;-51
2023/10/01 02:09:19;;;;;;;13.40;7.57;;;;;;;13.79;100.00;97544.06;5041283;28;20621;-51
2023/10/01 02:11:50;;;;;;;13.63;7.82;;;;;;;13.75;100.00;97542.66;5041707;28;20538;-50
2023/10/01 02:14:31;;;;;;;12.00;7.60;;;;;;;13.72;100.00;97545.59;5041671;28;20220;-50
2023/10/01 02:17:05;;;;;;;10.27;6.90;;;;;;;13.68;100.00;97543.38;5042203;28;20227;-50
2023/10/01 02:19:35;;;;;;;12.15;7.10;;;;;;;13.66;100.00;97542.69;5041199;28;20639;-51
2023/10/01 02:22:05;;;;;;;11.18;7.70;;;;;;;13.68;100.00;97541.56;5041454;28;20208;-51
2023/10/01 02:24:44;;;;;;;13.35;7.35;;;;;;;13.66;100.00;97538.22;5041703;28;20198;-50
2023/10/01 02:27:13;;;;;;;12.15;7.80;;;;;;;13.65;100.00;97541.00;5041516;28;20265;-51
2023/10/01 02:30:11;;;;;;;12.77;7.93;;;;;;;13.63;100.00;97535.00;5041999;28;20210;-50
2023/10/01 02:32:33;;;;;;;11.43;7.27;;;;;;;13.57;100.00;97533.72;5040940;28;20207;-51
2023/10/01 02:35:00;;;;;;;11.53;7.10;;;;;;;13.57;100.00;97531.06;5043298;28;20199;-50
2023/10/01 02:37:29;;;;;;;12.13;7.10;;;;;;;13.58;100.00;97523.94;5046218;28;20204;-50
2023/10/01 02:39:56;;;;;;;13.73;7.60;;;;;;;13.57;100.00;97531.06;5045044;28;20207;-51
2023/10/01 02:42:26;;;;;;;12.97;8.27;;;;;;;13.54;100.00;97526.03;5045750;28;20659;-51
2023/10/01 02:44:53;;;;;;;10.90;7.07;;;;;;;13.56;100.00;97523.25;5045080;28;20218;-50
2023/10/01 02:47:20;;;;;;;13.33;7.27;;;;;;;13.54;100.00;97520.72;5045157;28;20222;-50
2023/10/01 02:49:50;;;;;;;13.03;7.23;;;;;;;13.49;100.00;97517.66;5044648;28;20214;-51
2023/10/01 02:52:17;;;;;;;10.87;7.20;;;;;;;13.49;100.00;97522.97;5045004;28;20199;-51
2023/10/01 02:54:44;;;;;;;14.27;7.57;;;;;;;13.47;100.00;97527.56;5044973;28;20264;-52
2023/10/01 02:57:13;;;;;;;12.57;7.90;;;;;;;13.53;100.00;97532.34;5044650;28;20208;-50
2023/10/01 03:00:11;;;;;;;11.87;7.60;;;;;;;13.55;100.00;97540.16;5044799;28;20214;-51
2023/10/01 03:02:31;;;;;;;13.17;7.97;;;;;;;13.54;100.00;97533.16;5044008;28;20235;-50
2023/10/01 03:05:05;;;;;;;12.27;7.67;;;;;;;13.51;100.00;97536.94;5044892;28;20206;-50
2023/10/01 03:07:36;;;;;;;12.98;7.60;;;;;;;13.51;100.00;97544.06;5044620;28;20214;-51
2023/10/01 03:10:11;;;;;;;10.57;6.75;;;;;;;13.46;100.00;97544.50;5045338;28;20230;-50
2023/10/01 03:12:40;;;;;;;11.73;7.57;;;;;;;13.40;100.00;97537.91;5045975;28;20195;-50
2023/10/01 03:18:06;;;;;;;12.17;7.83;;;;;;;13.35;100.00;97534.00;5044127;28;20205;-50
2023/10/01 03:23:25;;;;;;;12.50;7.33;;;;;;;13.31;100.00;97537.91;5045784;28;20694;-50
2023/10/01 03:25:57;;;;;;;13.43;7.90;;;;;;;13.30;100.00;97533.56;5044935;28;20261;-51
2023/10/01 03:28:27;;;;;;;14.33;7.77;;;;;;;13.23;100.00;97529.78;5043001;28;20325;-50
2023/10/01 03:31:01;;;;;;;10.33;7.40;;;;;;;13.23;100.00;97535.09;5043169;28;20303;-51
2023/10/01 03:33:34;;;;;;;14.73;7.53;;;;;;;13.17;100.00;97535.66;5042481;28;20207;-49
2023/10/01 03:36:00;;;;;;;13.43;7.33;;;;;;;13.10;100.00;97535.38;5043216;28;20210;-50
2023/10/01 03:38:27;;;;;;;12.97;7.97;;;;;;;13.09;100.00;97532.81;5042738;28;20211;-50
2023/10/01 03:41:00;;;;;;;11.57;7.40;;;;;;;13.08;100.00;97537.28;5042536;28;20199;-50
2023/10/01 03:43:34;;;;;;;13.13;7.47;;;;;;;13.07;100.00;97534.78;5042203;28;20636;-50
2023/10/01 03:46:19;;;;;;;11.03;7.67;;;;;;;13.07;100.00;97534.78;5042204;28;20194;-52
2023/10/01 03:49:00;;;;;;;12.83;7.77;;;;;;;13.07;100.00;97529.47;5042758;28;20219;-50
2023/10/01 03:51:52;;;;;;;14.10;7.73;;;;;;;13.05;100.00;97528.72;5042402;28;20536;-51
2023/10/01 03:54:20;;;;;;;12.23;7.33;;;;;;;13.03;100.00;97533.34;5042167;28;20318;-51
2023/10/01 03:56:55;;;;;;;18.00;8.37;;;;;;;13.01;100.00;97536.13;5042432;28;20556;-50
2023/10/01 03:59:23;;;;;;;12.80;6.97;;;;;;;12.98;100.00;97525.78;5042298;28;20234;-50
2023/10/01 04:02:00;;;;;;;13.43;7.73;;;;;;;12.95;100.00;97526.06;5042476;28;20657;-51
2023/10/01 04:04:28;;;;;;;12.00;8.00;;;;;;;12.96;100.00;97531.25;5042197;28;20199;-51
2023/10/01 04:06:55;;;;;;;13.23;7.67;;;;;;;12.97;100.00;97530.25;5042354;28;20558;-50
2023/10/01 04:09:26;;;;;;;13.17;6.93;;;;;;;12.93;100.00;97528.84;5042210;28;20245;-51
2023/10/01 04:11:53;;;;;;;14.00;7.83;;;;;;;12.95;100.00;97528.72;5042208;28;20203;-50
2023/10/01 04:14:19;;;;;;;13.67;8.00;;;;;;;12.96;100.00;97533.06;5042399;28;20203;-50
2023/10/01 04:16:48;;;;;;;11.63;7.70;;;;;;;12.95;100.00;97526.91;5047410;28;20214;-52
2023/10/01 04:19:18;;;;;;;11.77;7.37;;;;;;;12.93;100.00;97534.16;5050912;28;20274;-50
2023/10/01 04:21:50;;;;;;;11.73;7.13;;;;;;;12.91;100.00;97529.97;5047434;28;20200;-50
2023/10/01 04:24:19;;;;;;;15.00;7.90;;;;;;;12.90;100.00;97526.47;5048076;28;20630;-50
2023/10/01 04:26:46;;;;;;;12.90;7.97;;;;;;;12.89;100.00;97530.09;5047277;28;20203;-51
2023/10/01 04:29:16;;;;;;;14.47;7.70;;;;;;;12.87;100.00;97533.88;5009989;28;1092359;-52
2023/10/01 04:31:48;;;;;;;13.43;7.70;;;;;;;12.84;100.00;97528.81;5048251;28;20204;-50
2023/10/01 04:34:17;;;;;;;13.10;8.30;;;;;;;12.76;100.00;97529.50;5049603;28;20729;-51
2023/10/01 04:36:48;;;;;;;13.63;7.53;;;;;;;12.74;100.00;97526.16;5044721;28;20668;-50
2023/10/01 04:39:17;;;;;;;12.63;7.47;;;;;;;12.74;100.00;97534.13;5043961;28;20203;-50
2023/10/01 04:41:43;;;;;;;13.57;7.53;;;;;;;12.71;100.00;97522.94;5042837;28;20579;-51
2023/10/01 04:44:13;;;;;;;12.67;7.97;;;;;;;12.67;100.00;97534.78;5043552;28;20208;-51
2023/10/01 04:46:40;;;;;;;11.67;7.00;;;;;;;12.70;100.00;97535.34;5042930;28;20701;-51
2023/10/01 04:49:26;;;;;;;11.00;7.33;;;;;;;12.74;100.00;97534.13;5044184;28;20302;-50
2023/10/01 04:51:56;;;;;;;11.73;7.53;;;;;;;12.74;100.00;97530.63;5042683;28;20206;-51
2023/10/01 04:54:25;;;;;;;12.37;7.77;;;;;;;12.75;100.00;97529.66;5042763;28;20203;-52
2023/10/01 04:56:52;;;;;;;12.40;7.70;;;;;;;12.71;100.00;97529.09;5041969;28;20200;-50
2023/10/01 04:59:19;;;;;;;12.43;7.13;;;;;;;12.67;100.00;97530.31;5042514;28;20204;-50
2023/10/01 05:01:47;;;;;;;10.10;7.13;;;;;;;12.68;100.00;97524.00;5042833;28;20265;-51
2023/10/01 05:04:14;;;;;;;13.00;7.50;;;;;;;12.68;100.00;97529.31;5041768;28;20533;-50
2023/10/01 05:06:43;;;;;;;11.20;7.30;;;;;;;12.68;100.00;97529.31;5042974;28;20262;-50
2023/10/01 05:09:14;;;;;;;11.50;7.77;;;;;;;12.65;100.00;97529.59;5042159;28;20232;-50
2023/10/01 05:11:42;;;;;;;12.67;8.13;;;;;;;12.64;100.00;97541.22;5043192;28;20210;-50
2023/10/01 05:14:12;;;;;;;15.63;7.90;;;;;;;12.67;100.00;97534.78;5042606;28;20257;-51
2023/10/01 05:16:39;;;;;;;12.47;7.30;;;;;;;12.66;100.00;97533.09;5042935;28;20233;-52
2023/10/01 05:19:10;;;;;;;12.60;7.77;;;;;;;12.66;100.00;97536.59;5041854;28;20249;-52
2023/10/01 05:21:41;;;;;;;14.23;7.40;;;;;;;12.63;100.00;97542.16;5042767;28;20211;-52
2023/10/01 05:24:08;;;;;;;13.90;7.63;;;;;;;12.61;100.00;97540.63;5042701;28;20208;-55
2023/10/01 05:26:36;;;;;;;12.57;7.67;;;;;;;12.58;100.00;97540.88;5042848;28;20291;-51
2023/10/01 05:29:06;;;;;;;13.30;7.60;;;;;;;12.51;100.00;97537.91;5042345;28;20224;-50
2023/10/01 05:31:34;;;;;;;13.77;7.30;;;;;;;12.51;100.00;97543.22;5042737;28;20206;-52
2023/10/01 05:34:01;;;;;;;15.40;7.97;;;;;;;12.52;100.00;97542.25;5041446;28;20234;-50
2023/10/01 05:36:29;;;;;;;13.27;7.77;;;;;;;12.54;100.00;97544.78;5041783;28;20210;-50
2023/10/01 05:38:56;;;;;;;10.43;7.57;;;;;;;12.59;100.00;97546.06;5042241;28;20227;-52
2023/10/01 05:41:29;;;;;;;12.27;8.07;;;;;;;12.61;100.00;97549.41;5042173;28;20207;-52
2023/10/01 05:43:59;;;;;;;13.77;7.87;;;;;;;12.57;100.00;97553.31;5041805;28;20204;-52
2023/10/01 05:46:28;;;;;;;13.50;8.27;;;;;;;12.52;100.00;97558.19;5041613;28;20200;-51
2023/10/01 05:48:55;;;;;;;14.30;7.87;;;;;;;12.51;100.00;97560.94;5041831;28;20317;-52
2023/10/01 05:51:30;;;;;;;12.23;7.57;;;;;;;12.54;100.00;97561.53;5042062;28;20202;-51
2023/10/01 05:53:56;;;;;;;11.87;7.63;;;;;;;12.57;100.00;97558.63;5041169;28;20210;-52
2023/10/01 05:56:36;;;;;;;14.20;8.13;;;;;;;12.62;100.00;97561.72;5041386;28;20212;-52
2023/10/01 05:59:04;;;;;;;12.17;7.90;;;;;;;12.70;100.00;97561.06;5042143;28;20187;-52
2023/10/01 06:01:33;;;;;;;12.27;7.43;;;;;;;12.77;100.00;97563.03;5041194;28;20644;-56
2023/10/01 06:04:00;;;;;;;11.57;7.93;;;;;;;12.83;100.00;97564.31;5041566;28;20243;-51
2023/10/01 06:06:27;;;;;;;13.53;7.90;;;;;;;12.88;100.00;97560.28;5041973;28;20217;-52
2023/10/01 06:08:59;;;;;;;11.17;7.97;;;;;;;12.90;100.00;97563.63;5041416;28;20231;-51
2023/10/01 06:11:39;;;;;;;13.97;7.40;;;;;;;12.97;100.00;97561.28;5042228;28;20211;-51
2023/10/01 06:14:07;;;;;;;13.57;7.97;;;;;;;13.01;100.00;97569.81;5041684;28;20212;-51
2023/10/01 06:16:37;;;;;;;14.80;8.03;;;;;;;13.08;100.00;97573.59;5041336;28;20207;-50
2023/10/01 06:19:11;;;;;;;12.10;7.60;;;;;;;13.11;100.00;97576.03;5041143;28;20199;-53
2023/10/01 06:21:39;;;;;;;14.10;8.87;;;;;;;13.22;100.00;97575.91;5041168;28;20611;-50
2023/10/01 06:24:10;;;;;;;13.37;7.47;;;;;;;13.25;100.00;97575.66;5041085;28;20613;-51
2023/10/01 06:26:37;;;;;;;11.47;7.80;;;;;;;13.27;100.00;97571.88;5042021;28;20199;-51
2023/10/01 06:29:05;;;;;;;12.07;7.50;;;;;;;13.37;100.00;97575.38;5041406;28;20239;-53
2023/10/01 06:31:48;;;;;;;11.67;7.73;;;;;;;13.61;100.00;97574.97;5040777;28;20536;-52
2023/10/01 06:34:15;;;;;;;11.68;7.80;;;;;;;14.21;100.00;97575.63;5041259;28;20204;-52
2023/10/01 06:36:42;;;;;;;13.88;8.55;;;;;;;14.66;100.00;97571.38;5041301;28;20215;-50
2023/10/01 06:39:19;;;;;;;14.45;8.52;;;;;;;14.74;100.00;97573.28;5040999;28;20636;-50
2023/10/01 06:41:48;;;;;;;12.82;9.05;;;;;;;14.82;100.00;97571.56;5040772;28;20218;-50
2023/10/01 06:44:15;;;;;;;17.27;9.25;;;;;;;14.78;100.00;97575.50;5041546;28;20289;-53
2023/10/01 06:46:44;;;;;;;13.70;8.93;;;;;;;14.68;100.00;97572.06;5041209;28;20199;-52
2023/10/01 06:49:10;;;;;;;16.42;9.13;;;;;;;14.64;100.00;97578.66;5040451;28;20234;-50
2023/10/01 06:51:43;;;;;;;14.30;8.75;;;;;;;14.63;100.00;97574.31;5040815;28;20207;-51
2023/10/01 06:54:10;;;;;;;14.70;8.90;;;;;;;14.63;100.00;97570.81;5041102;28;20700;-51
2023/10/01 06:56:44;;;;;;;15.07;9.35;;;;;;;14.67;100.00;97567.72;5040469;28;20664;-50
2023/10/01 06:59:27;;;;;;;14.20;8.38;;;;;;;14.70;100.00;97572.72;5041102;28;20219;-52
2023/10/01 07:01:56;;;;;;;11.65;8.30;;;;;;;14.76;100.00;97576.66;5040826;28;20214;-51
2023/10/01 07:04:24;;;;;;;12.82;8.68;;;;;;;14.69;100.00;97576.41;5041008;28;20540;-50
2023/10/01 07:06:51;;;;;;;13.73;9.07;;;;;;;14.68;100.00;97577.38;5041003;28;20282;-51
2023/10/01 07:12:06;;;;;;;13.52;10.10;;;;;;;14.65;100.00;97572.34;5039575;28;20219;-50
2023/10/01 07:17:23;;;;;;;13.95;10.25;;;;;;;14.69;100.00;97573.75;5041575;28;20647;-51
2023/10/01 07:19:59;;;;;;;14.30;10.30;;;;;;;14.78;100.00;97575.50;5041822;28;20203;-50
2023/10/01 07:22:26;;;;;;;14.15;9.80;;;;;;;14.84;100.00;97571.44;5045517;28;20211;-51
2023/10/01 07:24:53;;;;;;;14.00;9.38;;;;;;;14.95;100.00;97569.41;5045782;28;20270;-51
2023/10/01 07:27:19;;;;;;;14.40;9.95;;;;;;;14.93;100.00;97563.41;5046958;28;20672;-52
2023/10/01 07:29:47;;;;;;;17.60;10.15;;;;;;;15.00;100.00;97568.97;5045058;28;20215;-52
2023/10/01 07:32:13;;;;;;;15.27;10.38;;;;;;;15.06;100.00;97570.19;5045328;28;20648;-55
2023/10/01 07:34:45;;;;;;;14.07;10.23;;;;;;;15.12;100.00;97566.97;5045190;28;20226;-52
2023/10/01 07:37:23;;;;;;;12.80;9.48;;;;;;;15.19;100.00;97562.72;5046353;28;20191;-56
2023/10/01 07:39:52;;;;;;;15.93;10.88;;;;;;;15.26;100.00;97569.13;5045531;28;20196;-50
2023/10/01 07:42:18;;;;;;;16.10;10.60;;;;;;;15.21;100.00;97566.06;5044410;28;20199;-50
2023/10/01 07:44:45;;;;;;;16.63;11.38;;;;;;;15.19;100.00;97563.56;5044363;28;20526;-50
2023/10/01 07:47:28;;;;;;;15.23;10.32;;;;;;;15.27;100.00;97565.44;5043926;28;20215;-51
2023/10/01 07:49:57;;;;;;;15.57;11.23;;;;;;;15.38;100.00;97567.91;5043240;28;20208;-51
2023/10/01 07:52:23;;;;;;;16.02;11.25;;;;;;;15.50;100.00;97569.41;5043369;28;20204;-50
2023/10/01 07:54:50;;;;;;;14.18;10.10;;;;;;;15.49;100.00;97566.88;5043765;28;20207;-52
2023/10/01 07:57:17;;;;;;;16.55;11.00;;;;;;;15.57;100.00;97566.97;5043657;28;20215;-50
2023/10/01 07:59:46;;;;;;;15.77;10.80;;;;;;;15.62;100.00;97576.22;5043383;28;20529;-51
2023/10/01 08:02:19;;;;;;;17.67;10.80;;;;;;;15.66;100.00;97572.22;5043595;28;20334;-52
2023/10/01 08:04:59;;;;;;;18.65;11.32;;;;;;;15.79;100.00;97572.72;5043881;28;20195;-51
2023/10/01 08:07:30;;;;;;;16.25;11.07;;;;;;;15.86;100.00;97576.44;5043743;28;20618;-51
2023/10/01 08:09:59;;;;;;;14.80;10.70;;;;;;;15.91;100.00;97581.28;5043414;28;20238;-50
2023/10/01 08:12:29;;;;;;;16.45;11.02;;;;;;;15.97;100.00;97577.19;5043471;28;20258;-49
2023/10/01 08:17:36;;;;;;;15.93;10.68;;;;;;;16.05;100.00;97577.25;5042709;28;20286;-50
2023/10/01 08:20:15;;;;;;;19.85;10.95;;;;;;;16.10;100.00;97580.28;5043389;28;20203;-51
2023/10/01 08:23:09;;;;;;;15.10;10.43;;;;;;;16.08;100.00;97576.94;5043241;28;20257;-51
2023/10/01 08:25:33;;;;;;;15.18;9.90;;;;;;;16.15;100.00;97583.34;5043223;28;20294;-50
2023/10/01 08:28:26;;;;;;;15.32;10.43;;;;;;;16.22;100.00;97579.06;5043109;28;20297;-51
2023/10/01 08:31:01;;;;;;;16.10;11.40;;;;;;;16.28;100.00;97578.44;5043897;28;20207;-50
2023/10/01 08:33:32;;;;;;;18.63;11.35;;;;;;;16.36;100.00;97584.69;5042425;28;20207;-50
2023/10/01 08:36:01;;;;;;;15.35;10.23;;;;;;;16.48;100.00;97585.25;5043494;28;20204;-51
2023/10/01 08:38:34;;;;;;;17.45;11.48;;;;;;;16.60;100.00;97581.38;5043640;28;20238;-50
2023/10/01 08:41:02;;;;;;;17.42;12.00;;;;;;;16.63;100.00;97581.03;5044046;28;20203;-50
2023/10/01 08:43:29;;;;;;;17.52;10.75;;;;;;;16.81;100.00;97587.16;5044248;28;20222;-50
2023/10/01 08:45:58;;;;;;;15.38;10.73;;;;;;;16.99;100.00;97587.09;5043069;28;20204;-52
2023/10/01 08:48:35;;;;;;;14.65;11.02;;;;;;;17.07;100.00;97583.63;5042137;28;20238;-52
2023/10/01 08:51:08;;;;;;;15.38;11.13;;;;;;;17.12;100.00;97583.94;5042633;28;20206;-51
2023/10/01 08:53:41;;;;;;;16.77;11.13;;;;;;;17.18;100.00;97578.00;5042845;28;20205;-51
2023/10/01 08:56:13;;;;;;;16.58;10.68;;;;;;;17.34;100.00;97584.22;5042110;28;20230;-50
2023/10/01 08:58:48;;;;;;;16.70;11.68;;;;;;;17.46;100.00;97583.91;5042794;28;20206;-52
2023/10/01 09:01:19;;;;;;;16.40;10.98;;;;;;;17.58;100.00;97580.78;5042927;28;20211;-51
2023/10/01 09:03:48;;;;;;;15.05;10.68;;;;;;;17.79;100.00;97591.03;5042746;28;20326;-51
2023/10/01 09:06:25;;;;;;;15.70;11.15;;;;;;;18.06;100.00;97581.88;5042497;28;20215;-52
2023/10/01 09:08:55;;;;;;;14.32;10.27;;;;;;;18.33;100.00;97586.88;5042730;28;20234;-51
2023/10/01 09:11:35;;;;;;;17.52;11.50;;;;;;;18.56;100.00;97587.91;5042552;28;20196;-51
2023/10/01 09:14:17;;;;;;;15.35;11.82;;;;;;;18.80;100.00;97573.63;5042532;28;20199;-52
2023/10/01 09:16:45;;;;;;;19.75;14.85;;;;;;;19.17;100.00;97578.34;5041822;28;20214;-51
2023/10/01 09:21:55;;;;;;;15.73;11.23;;;;;;;19.47;100.00;97579.41;5041839;28;20609;-51
2023/10/01 09:24:38;;;;;;;15.38;10.00;;;;;;;19.75;100.00;97586.81;5042077;28;20211;-52
2023/10/01 09:27:09;;;;;;;15.43;11.98;;;;;;;20.08;100.00;97583.91;5041725;28;20198;-53
2023/10/01 09:29:43;;;;;;;15.98;10.55;;;;;;;20.16;100.00;97583.81;5042599;28;20289;-51
2023/10/01 09:32:11;;;;;;;14.45;10.85;;;;;;;20.25;100.00;97585.44;5042049;28;20282;-51
2023/10/01 09:34:46;;;;;;;14.68;10.80;;;;;;;20.18;98.94;97582.63;5041939;28;20203;-51
2023/10/01 09:37:17;;;;;;;14.38;10.02;;;;;;;20.40;100.00;97586.34;5041419;28;20203;-52
2023/10/01 09:39:45;;;;;;;15.88;10.52;;;;;;;20.39;99.73;97581.97;5042215;28;20549;-51
2023/10/01 09:42:25;;;;;;;17.23;11.30;;;;;;;20.51;97.40;97583.19;5042066;28;20195;-52
2023/10/01 09:44:53;;;;;;;14.68;10.05;;;;;;;20.94;95.31;97588.84;5042249;28;20199;-51
2023/10/01 09:47:24;;;;;;;15.38;10.27;;;;;;;20.89;95.16;97580.47;5041540;28;20203;-51
2023/10/01 09:49:52;;;;;;;18.02;11.63;;;;;;;20.85;96.24;97585.41;5041624;28;20216;-52
2023/10/01 09:52:27;;;;;;;14.50;10.73;;;;;;;21.15;92.50;97594.34;5041228;28;20651;-53
2023/10/01 09:55:01;;;;;;;13.82;10.50;;;;;;;21.36;93.14;97586.34;5043196;28;20207;-53
2023/10/01 09:57:34;;;;;;;14.18;9.40;;;;;;;21.78;95.30;97583.75;5043180;28;20210;-51
2023/10/01 10:00:17;;;;;;;12.93;10.93;;;;;;;22.00;91.19;97575.72;5043056;28;20195;-53
2023/10/01 10:02:51;;;;;;;16.13;9.70;;;;;;;21.99;91.18;97582.13;5042650;28;20227;-51
2023/10/01 10:05:24;;;;;;;14.48;10.68;;;;;;;21.88;88.58;97571.81;5042556;28;20284;-51
2023/10/01 10:07:51;;;;;;;14.85;10.13;;;;;;;22.00;90.16;97564.94;5042943;28;20340;-52
2023/10/01 10:10:24;;;;;;;15.38;10.02;;;;;;;22.33;86.78;97566.91;5042510;28;20223;-52
2023/10/01 10:12:53;;;;;;;14.82;9.93;;;;;;;22.54;85.36;97568.72;5042448;28;20199;-52
2023/10/01 10:15:55;;;;;;;13.73;9.98;;;;;;;22.63;86.83;97578.38;5041227;28;20208;-52
2023/10/01 10:18:23;;;;;;;13.30;9.63;;;;;;;22.96;84.98;97565.09;5040877;28;20192;-51
2023/10/01 10:21:04;;;;;;;17.27;12.00;;;;;;;23.22;81.75;97565.28;5041359;28;20580;-53
2023/10/01 10:23:30;;;;;;;18.90;12.68;;;;;;;23.37;85.20;97567.00;5040939;28;20657;-51
2023/10/01 10:26:14;;;;;;;14.75;9.77;;;;;;;23.39;84.17;97568.47;5041394;28;20203;-52
2023/10/01 10:28:53;;;;;;;16.92;10.55;;;;;;;23.46;79.61;97563.94;5039479;28;20319;-51
2023/10/01 10:31:33;;;;;;;14.13;9.32;;;;;;;23.42;79.68;97559.97;5041665;28;20216;-52
2023/10/01 10:34:25;;;;;;;16.85;10.27;;;;;;;23.58;78.12;97561.50;5041238;28;20266;-52
2023/10/01 10:36:50;;;;;;;13.70;9.82;;;;;;;23.69;79.81;97559.06;5041571;28;20315;-54
2023/10/01 10:40:02;;;;;;;13.88;10.20;;;;;;;23.68;77.26;97561.94;5042143;28;20195;-54
2023/10/01 10:42:29;;;;;;;18.90;11.25;;;;;;;23.64;75.91;97561.53;5041529;28;20324;-51
2023/10/01 10:45:23;;;;;;;16.27;10.10;;;;;;;23.93;78.27;97560.38;5040787;28;20636;-52
2023/10/01 10:47:58;;;;;;;18.25;10.15;;;;;;;24.32;76.24;97553.38;5040981;28;20760;-54
2023/10/01 10:50:39;;;;;;;16.77;10.98;;;;;;;24.31;73.84;97547.13;5040371;28;20301;-54
2023/10/01 10:53:14;;;;;;;15.98;10.35;;;;;;;24.16;73.95;97549.22;5040986;28;20195;-54
2023/10/01 10:55:41;;;;;;;14.10;8.93;;;;;;;24.61;75.12;97547.56;5043140;28;20199;-53
2023/10/01 10:58:12;;;;;;;13.40;9.55;;;;;;;24.54;73.64;97550.25;5044711;28;20253;-55
2023/10/01 11:00:41;;;;;;;14.43;9.55;;;;;;;24.59;74.26;97553.16;5044596;28;20261;-56
2023/10/01 11:03:11;;;;;;;14.35;10.38;;;;;;;24.65;72.38;97543.38;5045543;28;20230;-54
2023/10/01 11:05:49;;;;;;;18.85;10.85;;;;;;;24.63;72.83;97540.88;5044309;28;20246;-53
2023/10/01 11:08:25;;;;;;;13.60;9.57;;;;;;;25.23;73.51;97549.72;5045250;28;20257;-53
2023/10/01 11:10:54;;;;;;;14.15;10.20;;;;;;;25.39;70.24;97549.28;5044566;28;20207;-52
2023/10/01 11:13:42;;;;;;;16.55;9.80;;;;;;;25.68;70.62;97547.94;5044835;28;20199;-53
2023/10/01 11:16:14;;;;;;;15.70;9.75;;;;;;;25.90;70.37;97545.72;5043656;28;20218;-54
2023/10/01 11:18:44;;;;;;;14.02;9.27;;;;;;;26.32;67.63;97539.63;5044363;28;20223;-54
2023/10/01 11:21:20;;;;;;;12.52;9.27;;;;;;;26.66;69.49;97528.25;5044335;28;20262;-53
2023/10/01 11:23:49;;;;;;;14.18;9.73;;;;;;;26.99;66.83;97527.97;5044489;28;20196;-55
2023/10/01 11:26:26;;;;;;;12.57;8.77;;;;;;;26.92;68.61;97532.66;5045029;28;20206;-53
2023/10/01 11:28:57;;;;;;;13.05;9.65;;;;;;;26.60;67.15;97526.44;5043853;28;20315;-53
2023/10/01 11:31:24;;;;;;;14.23;9.70;;;;;;;26.64;66.73;97524.13;5045944;28;20192;-55
2023/10/01 11:34:03;;;;;;;15.27;9.82;;;;;;;26.53;68.62;97528.41;5043952;28;20209;-54
2023/10/01 11:36:36;;;;;;;13.27;9.25;;;;;;;26.69;67.60;97522.38;5044243;28;20302;-55
2023/10/01 11:39:03;;;;;;;12.45;9.30;;;;;;;26.33;68.07;97514.16;5046757;28;20256;-54
2023/10/01 11:41:38;;;;;;;14.80;9.55;;;;;;;26.62;67.09;97509.94;5045132;28;20203;-54
2023/10/01 11:44:08;;;;;;;14.70;9.85;;;;;;;26.98;66.58;97499.16;5045265;28;20269;-56
2023/10/01 11:46:39;;;;;;;11.85;8.77;;;;;;;26.32;67.28;97503.53;5044672;28;20625;-55
2023/10/01 11:49:18;;;;;;;14.85;9.93;;;;;;;26.69;66.63;97492.53;5044206;28;20230;-56
2023/10/01 11:51:48;;;;;;;15.18;10.27;;;;;;;26.34;68.68;97494.13;5044243;28;20282;-54